createdAt,value
2022-08-10T00:03:14.001Z,0.2
2022-08-10T00:08:22.579Z,0.2
2022-08-10T00:23:20.337Z,0.2
2022-08-10T00:28:22.261Z,0.2
2022-08-10T00:38:25.362Z,0.2
2022-08-10T00:53:14.077Z,0.2
2022-08-10T00:58:14.084Z,0.1
2022-08-10T01:03:14.058Z,0.2
2022-08-10T01:08:14.044Z,0.2
2022-08-10T01:13:14.036Z,0.1
2022-08-10T01:18:14.027Z,0.2
2022-08-10T01:23:14.015Z,0.2
2022-08-10T01:28:14.060Z,0.2
2022-08-10T01:33:14.065Z,0.2
2022-08-10T01:38:14.050Z,0.2
2022-08-10T01:43:16.117Z,0.2
2022-08-10T01:53:14.090Z,0.2
2022-08-10T01:58:14.061Z,0.1
2022-08-10T02:03:15.008Z,0.2
2022-08-10T02:08:14.078Z,0.2
2022-08-10T02:13:14.018Z,0.2
2022-08-10T02:18:17.035Z,0.2
2022-08-10T02:23:17.049Z,0.2
2022-08-10T02:28:27.582Z,0.2
2022-08-10T02:38:14.061Z,0.2
2022-08-10T02:48:14.055Z,0.1
2022-08-10T02:53:54.224Z,0.2
2022-08-10T02:58:20.123Z,0.2
2022-08-10T03:03:14.053Z,0.1
2022-08-10T03:08:14.061Z,0.2
2022-08-10T03:18:14.036Z,0.2
2022-08-10T03:23:15.520Z,0.2
2022-08-10T03:28:18.190Z,0.2
2022-08-10T03:38:14.066Z,0.1
2022-08-10T03:43:15.531Z,0.2
2022-08-10T03:48:14.112Z,0.2
2022-08-10T03:53:25.011Z,0.3
2022-08-10T03:58:14.136Z,0.2
2022-08-10T04:03:14.073Z,0.2
2022-08-10T04:08:14.079Z,0.2
2022-08-10T04:13:14.050Z,0.4
2022-08-10T04:18:14.104Z,0.4
2022-08-10T04:23:14.078Z,0.4
2022-08-10T04:28:14.134Z,0.4
2022-08-10T04:33:16.393Z,0.5
2022-08-10T04:38:14.149Z,0.5
2022-08-10T04:48:36.599Z,0.6
2022-08-10T04:53:14.197Z,0.8
2022-08-10T04:58:14.119Z,0.7
2022-08-10T05:03:14.085Z,0.8
2022-08-10T05:08:14.174Z,0.9
2022-08-10T05:13:14.105Z,0.9
2022-08-10T05:18:14.112Z,0.1
2022-08-10T05:23:17.635Z,0.1
2022-08-10T05:28:14.153Z,0.1
2022-08-10T05:33:14.194Z,0.11
2022-08-10T05:38:20.232Z,0.11
2022-08-10T05:43:18.855Z,0.12
2022-08-10T05:48:41.203Z,0.12
2022-08-10T05:53:56.758Z,0.13
2022-08-10T05:58:14.091Z,0.13
2022-08-10T06:03:14.093Z,0.13
2022-08-10T06:08:14.108Z,0.14
2022-08-10T06:18:14.129Z,0.15
2022-08-10T06:23:14.132Z,0.15
2022-08-10T06:28:14.109Z,0.15
2022-08-10T06:33:14.194Z,0.15
2022-08-10T06:38:14.199Z,0.16
2022-08-10T06:43:14.136Z,0.16
2022-08-10T06:48:14.107Z,0.17
2022-08-10T06:53:14.167Z,0.17
2022-08-10T06:58:14.161Z,0.18
2022-08-10T07:03:14.119Z,0.18
2022-08-10T07:08:14.147Z,0.18
2022-08-10T07:13:14.122Z,0.2
2022-08-10T07:18:14.122Z,0.2
2022-08-10T07:23:56.386Z,0.19
2022-08-10T07:28:14.114Z,0.2
2022-08-10T07:33:14.154Z,0.21
2022-08-10T07:38:14.270Z,0.23
2022-08-10T07:43:14.268Z,0.23
2022-08-10T07:48:14.196Z,0.22
2022-08-10T07:53:14.170Z,0.24
2022-08-10T07:58:14.181Z,0.25
2022-08-10T08:03:14.186Z,0.26
2022-08-10T08:08:14.161Z,0.27
2022-08-10T08:13:14.152Z,0.29
2022-08-10T08:18:15.140Z,0.31
2022-08-10T08:24:04.256Z,0.32
2022-08-10T08:28:14.168Z,0.33
2022-08-10T08:33:19.682Z,0.33
2022-08-10T08:38:30.133Z,0.36
2022-08-10T08:43:14.157Z,0.39
2022-08-10T08:48:14.221Z,0.43
2022-08-10T08:53:22.076Z,0.53
2022-08-10T08:58:14.194Z,0.64
2022-08-10T09:03:14.167Z,2.16
2022-08-10T09:13:14.157Z,8.48
2022-08-10T09:18:14.162Z,7.37
2022-08-10T09:23:14.245Z,7
2022-08-10T09:28:14.167Z,8.15
2022-08-10T09:36:18.915Z,8.83
2022-08-10T09:38:14.193Z,9.17
2022-08-10T09:43:25.700Z,9.12
2022-08-10T09:48:14.220Z,8.4
2022-08-10T09:53:14.188Z,1
2022-08-10T09:58:14.173Z,8.17
2022-08-10T10:03:18.333Z,6.59
2022-08-10T10:08:14.228Z,1.2
2022-08-10T10:13:14.214Z,1.3
2022-08-10T10:18:14.172Z,0.51
2022-08-10T10:23:19.209Z,0.43
2022-08-10T10:28:14.232Z,0.76
2022-08-10T10:33:15.205Z,7.85
2022-08-10T10:38:17.183Z,1.36
2022-08-10T10:43:15.306Z,0.5
2022-08-10T10:48:17.755Z,0.53
2022-08-10T10:53:14.233Z,0.54
2022-08-10T10:58:20.139Z,0.42
2022-08-10T11:03:14.267Z,0.7
2022-08-10T11:08:15.413Z,6.64
2022-08-10T11:14:23.684Z,0.5
2022-08-10T11:18:17.229Z,5.94
2022-08-10T11:23:14.245Z,0.92
2022-08-10T11:28:18.072Z,0.72
2022-08-10T11:33:14.216Z,0.67
2022-08-10T11:38:30.144Z,0.57
2022-08-10T11:43:14.194Z,0.43
2022-08-10T11:48:52.718Z,0.41
2022-08-10T11:53:14.229Z,0.41
2022-08-10T11:58:14.308Z,0.4
2022-08-10T12:03:16.460Z,0.53
2022-08-10T12:09:24.054Z,0.38
2022-08-10T12:13:14.220Z,0.42
2022-08-10T12:18:14.259Z,0.41
2022-08-10T12:23:14.272Z,0.4
2022-08-10T12:28:14.214Z,0.43
2022-08-10T12:33:14.561Z,0.43
2022-08-10T12:38:16.751Z,0.31
2022-08-10T12:44:05.844Z,0.31
2022-08-10T12:48:14.235Z,0.36
2022-08-10T12:53:14.299Z,0.35
2022-08-10T12:58:58.486Z,0.33
2022-08-10T13:03:17.300Z,0.28
2022-08-10T13:08:26.175Z,0.3
2022-08-10T13:13:14.264Z,0.24
2022-08-10T13:18:17.941Z,0.25
2022-08-10T13:23:14.310Z,0.32
2022-08-10T13:28:36.841Z,0.47
2022-08-10T13:33:14.381Z,0.35
2022-08-10T13:38:14.310Z,0.21
2022-08-10T13:43:14.262Z,0.36
2022-08-10T13:48:14.334Z,0.32
2022-08-10T13:53:17.293Z,0.28
2022-08-10T13:58:17.606Z,0.2
2022-08-10T14:03:14.263Z,0.39
2022-08-10T14:08:14.267Z,0.32
2022-08-10T14:13:14.319Z,0.26
2022-08-10T14:18:14.388Z,0.25
2022-08-10T14:23:14.358Z,0.2
2022-08-10T14:28:17.383Z,0.25
2022-08-10T14:33:14.546Z,0.22
2022-08-10T14:38:14.309Z,0.25
2022-08-10T14:43:28.370Z,0.23
2022-08-10T14:48:14.366Z,0.3
2022-08-10T15:43:19.966Z,0.25
2022-08-10T15:48:17.339Z,0.28
2022-08-10T15:53:17.341Z,0.27
2022-08-10T16:03:14.353Z,0.22
2022-08-10T16:08:15.340Z,0.13
2022-08-10T16:13:49.883Z,0.12
2022-08-10T16:18:14.451Z,0.1
2022-08-10T16:28:20.243Z,0.16
2022-08-10T16:33:14.386Z,0.15
2022-08-10T16:38:14.493Z,0.15
2022-08-10T16:43:17.406Z,0.14
2022-08-10T16:48:15.421Z,0.15
2022-08-10T16:53:14.330Z,0.14
2022-08-10T16:58:14.362Z,0.12
2022-08-10T17:03:23.017Z,0.12
2022-08-10T17:08:14.321Z,0.11
2022-08-10T17:13:18.609Z,0.9
2022-08-10T17:18:14.483Z,0.9
2022-08-10T17:23:14.345Z,0.9
2022-08-10T17:28:33.394Z,0.8
2022-08-10T17:33:14.366Z,0.8
2022-08-10T17:38:14.329Z,0.7
2022-08-10T17:43:45.802Z,0.8
2022-08-10T17:48:14.368Z,0.6
2022-08-10T17:53:14.408Z,0.6
2022-08-10T17:58:14.388Z,0.5
2022-08-10T18:03:25.419Z,0.5
2022-08-10T18:08:14.412Z,0.5
2022-08-10T18:13:14.399Z,0.4
2022-08-10T18:18:14.389Z,0.4
2022-08-10T18:23:14.380Z,0.3
2022-08-10T18:28:14.482Z,0.4
2022-08-10T18:33:14.418Z,0.3
2022-08-10T18:38:14.516Z,0.2
2022-08-10T18:44:04.488Z,0.2
2022-08-10T18:48:14.412Z,0.3
2022-08-10T18:53:14.424Z,0.2
2022-08-10T18:58:14.413Z,0.2
2022-08-10T19:03:14.420Z,0.1
2022-08-10T19:08:30.195Z,0.2
2022-08-10T19:13:14.405Z,0.2
2022-08-10T19:18:14.542Z,0.2
2022-08-10T19:23:14.407Z,0.2
2022-08-10T19:28:14.463Z,0.2
2022-08-10T19:33:14.514Z,0.2
2022-08-10T19:38:17.459Z,0.1
2022-08-10T19:43:20.708Z,0.2
2022-08-10T19:48:14.443Z,0.2
2022-08-10T19:53:14.447Z,0.2
2022-08-10T19:58:14.406Z,0.2
2022-08-10T20:03:14.437Z,0.3
2022-08-10T20:08:19.885Z,0.2
2022-08-10T20:13:14.519Z,0.2
2022-08-10T20:18:15.438Z,0.2
2022-08-10T20:23:14.446Z,0.2
2022-08-10T20:28:14.405Z,0.2
2022-08-10T20:33:14.432Z,0.2
2022-08-10T20:38:17.252Z,0.2
2022-08-10T20:43:14.485Z,0.1
2022-08-10T20:48:14.451Z,0.2
2022-08-10T20:53:14.440Z,0.2
2022-08-10T20:58:14.415Z,0.2
2022-08-10T21:03:21.284Z,0.1
2022-08-10T21:08:14.494Z,0.3
2022-08-10T21:13:17.432Z,0.1
2022-08-10T21:18:18.306Z,0.2
2022-08-10T21:23:17.486Z,0.3
2022-08-10T21:28:14.473Z,0.1
2022-08-10T21:33:14.500Z,0.2
2022-08-10T21:38:14.447Z,0.2
2022-08-10T21:43:17.766Z,0.2
2022-08-10T21:48:19.725Z,0.2
2022-08-10T21:58:15.507Z,0.3
2022-08-10T22:03:17.836Z,0.2
2022-08-10T22:08:17.500Z,0.2
2022-08-10T22:13:14.500Z,0.2
2022-08-10T22:18:17.500Z,0.2
2022-08-10T22:23:19.598Z,0.2
2022-08-10T22:28:18.361Z,0.2
2022-08-10T22:33:17.486Z,0.1
2022-08-10T22:38:14.502Z,0.1
2022-08-10T22:43:14.736Z,0.2
2022-08-10T22:48:14.511Z,0.2
2022-08-10T22:53:14.512Z,0.2
2022-08-10T22:58:14.515Z,0.2
2022-08-10T23:03:14.503Z,0.2
2022-08-10T23:08:19.647Z,0.2
2022-08-10T23:13:23.493Z,0.2
2022-08-10T23:18:14.731Z,0.2
2022-08-10T23:23:23.426Z,0.1
2022-08-10T23:28:19.865Z,0.2
2022-08-10T23:33:14.460Z,0.2
2022-08-10T23:38:14.511Z,0.1
2022-08-10T23:43:14.545Z,0.3
2022-08-10T23:48:14.520Z,0.2
2022-08-10T23:53:16.494Z,0.2
2022-08-10T23:58:31.501Z,0.1
